Time;durP1;ratioP1;P1;durP2;ratioP2;P2;SDS_P1;SDS_P2;PMS_P1;PMS_P2;Temp;Humidity;BMP_temperature;BMP_pressure;BME280_temperature;BME280_humidity;BME280_pressure;Samples;Min_cycle;Max_cycle;Signal;HPM_P1;HPM_P2
2023/10/22 00:00:43;;;;;;;0.80;0.80;;;16.50;73.90;;;;;;5039822;28;20119;-77
2023/10/22 00:03:09;;;;;;;0.80;0.80;;;16.60;73.90;;;;;;5033437;28;20029;-77
2023/10/22 00:05:35;;;;;;;0.70;0.70;;;16.50;73.90;;;;;;5038858;28;20037;-77
2023/10/22 00:08:00;;;;;;;0.75;0.70;;;16.50;73.90;;;;;;5037936;28;20789;-77
2023/10/22 00:10:27;;;;;;;0.70;0.70;;;16.50;73.90;;;;;;5015476;28;20112;-77
2023/10/22 00:12:53;;;;;;;1.27;0.80;;;16.50;73.90;;;;;;4995113;28;20040;-77
2023/10/22 00:15:20;;;;;;;1.13;0.70;;;16.60;74.00;;;;;;5031313;28;20045;-77
2023/10/22 00:17:49;;;;;;;0.70;0.70;;;16.50;73.90;;;;;;5030605;28;20034;-77
2023/10/22 00:20:15;;;;;;;0.80;0.80;;;16.50;74.00;;;;;;5021212;28;20041;-77
2023/10/22 00:22:40;;;;;;;1.00;0.80;;;16.50;73.90;;;;;;5034835;28;20025;-76
2023/10/22 00:25:07;;;;;;;0.70;0.70;;;16.50;73.90;;;;;;5009957;28;20045;-78
2023/10/22 00:27:32;;;;;;;1.58;0.90;;;16.50;74.00;;;;;;5031475;28;20026;-77
2023/10/22 00:29:59;;;;;;;0.80;0.80;;;16.60;74.00;;;;;;5014343;28;20500;-76
2023/10/22 00:32:25;;;;;;;1.58;1.10;;;16.50;73.90;;;;;;5037831;28;20386;-77
2023/10/22 00:34:51;;;;;;;0.65;0.65;;;16.50;73.90;;;;;;5016679;28;20040;-77
2023/10/22 00:37:16;;;;;;;0.70;0.70;;;16.60;74.00;;;;;;5031927;28;20026;-77
2023/10/22 00:39:42;;;;;;;1.08;0.73;;;16.50;73.90;;;;;;5037286;28;20068;-78
2023/10/22 00:42:09;;;;;;;1.85;0.80;;;16.50;74.00;;;;;;5016459;28;20387;-77
2023/10/22 00:44:35;;;;;;;0.70;0.70;;;16.50;74.00;;;;;;5037648;28;20105;-77
2023/10/22 00:47:05;;;;;;;0.80;0.80;;;16.60;74.00;;;;;;5014991;28;20061;-76
2023/10/22 00:49:31;;;;;;;0.70;0.70;;;16.50;74.60;;;;;;5038083;28;20033;-78
2023/10/22 00:51:57;;;;;;;0.70;0.70;;;16.60;74.00;;;;;;5030722;28;20051;-77
2023/10/22 00:54:25;;;;;;;0.77;0.77;;;16.50;73.90;;;;;;5028773;28;20452;-77
2023/10/22 00:56:53;;;;;;;1.20;0.80;;;16.60;74.10;;;;;;5031372;28;20087;-77
2023/10/22 00:59:19;;;;;;;0.80;0.80;;;16.60;74.00;;;;;;5032803;28;20034;-77
2023/10/22 01:01:45;;;;;;;1.45;0.80;;;16.60;74.00;;;;;;5032540;28;20083;-77
2023/10/22 01:04:12;;;;;;;0.70;0.70;;;16.50;73.90;;;;;;5016219;28;20033;-78
2023/10/22 01:06:38;;;;;;;0.77;0.70;;;16.50;73.90;;;;;;5002209;28;20415;-77
2023/10/22 01:09:06;;;;;;;0.68;0.68;;;16.50;74.00;;;;;;5040190;28;20025;-77
2023/10/22 01:11:33;;;;;;;0.73;0.73;;;16.50;74.00;;;;;;5029476;28;20816;-77
2023/10/22 01:14:00;;;;;;;1.35;0.88;;;16.50;74.00;;;;;;5022873;28;20366;-76
2023/10/22 01:16:26;;;;;;;1.15;0.80;;;16.50;74.00;;;;;;5021101;28;20040;-77
2023/10/22 01:18:52;;;;;;;0.80;0.80;;;16.50;74.00;;;;;;5021653;28;20037;-77
2023/10/22 01:21:17;;;;;;;0.80;0.80;;;16.60;74.10;;;;;;5034096;28;20270;-77
2023/10/22 01:23:43;;;;;;;0.70;0.70;;;16.60;74.10;;;;;;5015360;28;20124;-77
2023/10/22 01:26:09;;;;;;;0.90;0.75;;;16.50;74.00;;;;;;5034121;28;20105;-77
2023/10/22 01:28:35;;;;;;;1.05;0.90;;;16.50;74.00;;;;;;5029717;28;20359;-77
2023/10/22 01:31:04;;;;;;;0.70;0.70;;;16.50;74.00;;;;;;5031215;28;20045;-77
2023/10/22 01:33:30;;;;;;;1.05;0.88;;;16.50;74.00;;;;;;5039757;28;20033;-77
2023/10/22 01:35:56;;;;;;;0.73;0.70;;;16.50;74.00;;;;;;5027507;28;20498;-77
2023/10/22 01:38:22;;;;;;;0.82;0.80;;;16.50;74.00;;;;;;5029923;28;20022;-77
2023/10/22 01:40:48;;;;;;;0.70;0.70;;;16.50;74.10;;;;;;5032467;28;20116;-77
2023/10/22 01:43:13;;;;;;;0.70;0.70;;;16.50;74.10;;;;;;5040725;28;20025;-77
2023/10/22 01:45:39;;;;;;;1.23;0.82;;;16.50;74.00;;;;;;5036506;28;20033;-77
2023/10/22 01:48:05;;;;;;;0.90;0.90;;;16.50;74.10;;;;;;5007578;28;20043;-76
2023/10/22 01:50:32;;;;;;;1.95;0.90;;;16.50;74.10;;;;;;5035239;28;20028;-76
2023/10/22 01:52:57;;;;;;;0.82;0.80;;;16.50;74.10;;;;;;5015706;28;20489;-77
2023/10/22 01:55:23;;;;;;;1.23;0.93;;;16.50;74.10;;;;;;5012826;28;20058;-77
2023/10/22 01:57:49;;;;;;;0.80;0.80;;;16.50;74.10;;;;;;5017963;28;20034;-77
2023/10/22 02:00:15;;;;;;;0.82;0.80;;;16.50;74.10;;;;;;5013095;28;20030;-77
2023/10/22 02:02:41;;;;;;;0.60;0.60;;;16.50;74.10;;;;;;5013023;28;20034;-77
2023/10/22 02:05:07;;;;;;;0.88;0.77;;;16.50;74.10;;;;;;5016140;28;20029;-76
2023/10/22 02:07:39;;;;;;;1.50;0.90;;;16.50;74.10;;;;;;5029301;28;20061;-77
2023/10/22 02:10:06;;;;;;;0.80;0.80;;;16.50;74.10;;;;;;5032866;28;20044;-77
2023/10/22 02:12:32;;;;;;;0.75;0.75;;;16.50;74.10;;;;;;5029262;28;20076;-78
2023/10/22 02:14:58;;;;;;;0.75;0.73;;;16.50;74.10;;;;;;5035484;28;20040;-77
2023/10/22 02:17:24;;;;;;;0.65;0.65;;;16.50;74.10;;;;;;5010737;28;20036;-78
2023/10/22 02:19:49;;;;;;;0.70;0.70;;;16.50;74.10;;;;;;5008399;28;20025;-77
2023/10/22 02:22:18;;;;;;;0.80;0.80;;;16.50;74.10;;;;;;5015548;28;20053;-77
2023/10/22 02:24:44;;;;;;;0.80;0.80;;;16.50;74.10;;;;;;5034094;28;20029;-78
2023/10/22 02:27:09;;;;;;;0.77;0.77;;;16.50;74.10;;;;;;5013937;28;20453;-78
2023/10/22 02:29:36;;;;;;;1.30;1.13;;;16.50;74.20;;;;;;5012373;28;20081;-78
2023/10/22 02:32:05;;;;;;;0.85;0.85;;;16.50;74.20;;;;;;5030503;28;20021;-79
2023/10/22 02:34:31;;;;;;;0.80;0.80;;;16.50;74.20;;;;;;5038823;28;20033;-78
2023/10/22 02:36:57;;;;;;;0.80;0.80;;;16.50;74.20;;;;;;5023935;28;20033;-78
2023/10/22 02:39:24;;;;;;;1.40;1.15;;;16.50;74.20;;;;;;5017517;28;20029;-78
2023/10/22 02:41:50;;;;;;;1.98;1.00;;;16.50;74.30;;;;;;5021237;28;20033;-77
2023/10/22 02:44:16;;;;;;;0.75;0.75;;;16.40;74.20;;;;;;5018961;28;20371;-78
2023/10/22 02:46:41;;;;;;;0.73;0.73;;;16.40;74.20;;;;;;5019701;28;20037;-77
2023/10/22 02:49:07;;;;;;;1.38;0.90;;;16.40;74.30;;;;;;5033879;28;20032;-77
2023/10/22 02:51:33;;;;;;;0.80;0.80;;;16.40;74.30;;;;;;5020172;28;20036;-78
2023/10/22 02:53:58;;;;;;;1.15;0.90;;;16.40;74.30;;;;;;5042586;28;20382;-78
2023/10/22 02:56:24;;;;;;;1.08;0.98;;;16.40;74.30;;;;;;5016056;28;20805;-79
2023/10/22 02:58:50;;;;;;;0.82;0.77;;;16.40;74.30;;;;;;5005218;28;20111;-78
2023/10/22 03:01:17;;;;;;;1.00;0.82;;;16.40;74.30;;;;;;5024016;28;20474;-78
2023/10/22 03:03:43;;;;;;;1.35;0.98;;;16.40;74.30;;;;;;5042197;28;20068;-78
2023/10/22 03:06:11;;;;;;;0.88;0.70;;;16.40;74.30;;;;;;5036529;28;20041;-77
2023/10/22 03:08:38;;;;;;;1.00;0.98;;;16.40;74.40;;;;;;5039140;28;20804;-78
2023/10/22 03:11:07;;;;;;;0.90;0.90;;;16.40;74.40;;;;;;5039323;28;20100;-77
2023/10/22 03:13:33;;;;;;;1.27;1.05;;;16.40;74.40;;;;;;5049127;28;20029;-78
2023/10/22 03:16:07;;;;;;;1.15;0.90;;;16.40;74.40;;;;;;5034419;28;20075;-77
2023/10/22 03:18:33;;;;;;;0.80;0.80;;;16.40;74.50;;;;;;5041123;28;20030;-77
2023/10/22 03:20:59;;;;;;;1.00;1.00;;;16.40;74.40;;;;;;5039680;28;20056;-78
2023/10/22 03:23:25;;;;;;;1.10;0.88;;;16.40;74.40;;;;;;5032541;28;20080;-78
2023/10/22 03:25:51;;;;;;;1.17;0.88;;;16.40;74.40;;;;;;5032937;28;20400;-77
2023/10/22 03:28:16;;;;;;;1.10;0.95;;;16.40;74.40;;;;;;5029598;28;20040;-78
2023/10/22 03:30:42;;;;;;;1.23;0.88;;;16.30;74.40;;;;;;5035302;28;20128;-77
2023/10/22 03:33:08;;;;;;;1.02;0.93;;;16.40;74.40;;;;;;5009014;28;20041;-78
2023/10/22 03:35:36;;;;;;;1.42;1.00;;;16.30;74.40;;;;;;5031742;28;20074;-78
2023/10/22 03:38:03;;;;;;;0.93;0.93;;;16.30;74.40;;;;;;5025344;28;20033;-77
2023/10/22 03:40:31;;;;;;;0.98;0.90;;;16.30;74.40;;;;;;5032012;28;20057;-77
2023/10/22 03:42:57;;;;;;;1.40;1.15;;;16.30;74.40;;;;;;5017881;28;20091;-77
2023/10/22 03:45:23;;;;;;;1.10;1.10;;;16.30;74.40;;;;;;5037434;28;20037;-78
2023/10/22 03:47:48;;;;;;;1.27;1.10;;;16.30;74.40;;;;;;5017196;28;20128;-78
2023/10/22 03:50:14;;;;;;;1.83;1.00;;;16.30;74.50;;;;;;5036165;28;20026;-77
2023/10/22 03:52:40;;;;;;;1.08;0.98;;;16.30;74.50;;;;;;5040032;28;20491;-78
2023/10/22 03:55:06;;;;;;;1.77;1.17;;;16.30;74.50;;;;;;5001064;28;20113;-77
2023/10/22 03:57:32;;;;;;;1.55;1.00;;;16.20;74.40;;;;;;5035313;28;20040;-78
2023/10/22 03:59:57;;;;;;;1.02;0.80;;;16.20;74.50;;;;;;5030419;28;20030;-77
2023/10/22 04:02:23;;;;;;;1.88;1.10;;;16.30;74.50;;;;;;5015791;28;20526;-78
2023/10/22 04:04:49;;;;;;;1.73;1.02;;;16.20;74.50;;;;;;5016023;28;20120;-78
2023/10/22 04:07:14;;;;;;;1.05;0.95;;;16.20;74.50;;;;;;5023122;28;20040;-78
2023/10/22 04:09:40;;;;;;;1.13;0.90;;;16.20;75.10;;;;;;5019550;28;20049;-77
2023/10/22 04:12:08;;;;;;;1.45;1.00;;;16.20;74.50;;;;;;4999114;28;20041;-78
2023/10/22 04:14:36;;;;;;;1.67;1.10;;;16.20;74.50;;;;;;5034524;28;20040;-78
2023/10/22 04:17:02;;;;;;;1.27;0.85;;;16.20;74.50;;;;;;5016535;28;20082;-78
2023/10/22 04:19:28;;;;;;;2.25;1.10;;;16.20;74.50;;;;;;5023113;28;20420;-78
2023/10/22 04:21:53;;;;;;;1.35;1.10;;;16.20;74.60;;;;;;5017544;28;20367;-78
2023/10/22 04:24:19;;;;;;;1.67;1.17;;;16.10;74.50;;;;;;5022962;28;20079;-78
2023/10/22 04:26:45;;;;;;;1.60;1.33;;;16.20;74.50;;;;;;5041490;28;20832;-78
2023/10/22 04:29:10;;;;;;;1.30;1.20;;;16.20;74.50;;;;;;5023033;28;20100;-78
2023/10/22 04:31:36;;;;;;;1.05;1.00;;;16.10;74.50;;;;;;5031778;28;20036;-77
2023/10/22 04:34:02;;;;;;;1.23;1.02;;;16.20;74.60;;;;;;5030472;28;20099;-78
2023/10/22 04:36:28;;;;;;;1.40;1.08;;;16.20;74.60;;;;;;5034768;28;20041;-78
2023/10/22 04:38:54;;;;;;;1.20;1.10;;;16.10;74.60;;;;;;5019101;28;20037;-77
2023/10/22 04:41:19;;;;;;;1.02;1.00;;;16.10;74.60;;;;;;5029818;28;20064;-77
2023/10/22 04:43:45;;;;;;;1.38;1.10;;;16.10;74.60;;;;;;5038971;28;20500;-77
2023/10/22 04:46:11;;;;;;;1.40;1.10;;;16.10;74.60;;;;;;5035081;28;20461;-77
2023/10/22 04:48:37;;;;;;;1.40;1.30;;;16.10;74.60;;;;;;5030111;28;20033;-78
2023/10/22 04:51:07;;;;;;;1.17;1.10;;;16.10;74.60;;;;;;5000578;28;20128;-78
2023/10/22 04:53:36;;;;;;;1.17;1.13;;;16.10;74.70;;;;;;5023346;28;20029;-78
2023/10/22 04:56:02;;;;;;;1.45;1.30;;;16.10;74.70;;;;;;5029989;28;20483;-77
2023/10/22 04:58:28;;;;;;;1.20;1.10;;;16.10;74.70;;;;;;5027518;28;20099;-78
2023/10/22 05:00:54;;;;;;;1.58;1.15;;;16.10;74.70;;;;;;5031673;28;20040;-78
2023/10/22 05:03:20;;;;;;;1.25;1.15;;;16.10;74.70;;;;;;5015239;28;20034;-78
2023/10/22 05:05:46;;;;;;;1.10;1.10;;;16.10;74.70;;;;;;5018959;28;20086;-78
2023/10/22 05:08:11;;;;;;;1.10;1.00;;;16.00;74.60;;;;;;5033985;28;20029;-77
2023/10/22 05:10:40;;;;;;;2.28;1.30;;;16.10;74.70;;;;;;4990815;28;20443;-78
2023/10/22 05:13:09;;;;;;;1.48;1.20;;;16.00;74.70;;;;;;5008734;28;20034;-77
2023/10/22 05:15:35;;;;;;;1.10;1.00;;;16.00;74.70;;;;;;5019622;28;20478;-78
2023/10/22 05:18:04;;;;;;;1.33;1.23;;;16.00;74.70;;;;;;5031813;28;20036;-77
2023/10/22 05:20:30;;;;;;;1.20;1.10;;;16.00;74.80;;;;;;5030904;28;20025;-79
2023/10/22 05:22:57;;;;;;;3.05;1.20;;;16.00;74.70;;;;;;5031964;28;20540;-77
2023/10/22 05:25:23;;;;;;;1.60;1.40;;;16.00;74.70;;;;;;5022228;28;20025;-77
2023/10/22 05:27:49;;;;;;;2.10;1.42;;;16.00;74.80;;;;;;5039328;28;20542;-77
2023/10/22 05:30:15;;;;;;;1.30;1.20;;;15.90;74.70;;;;;;5043113;28;20122;-77
2023/10/22 05:32:41;;;;;;;1.20;1.15;;;15.90;74.70;;;;;;5034809;28;20025;-77
2023/10/22 05:35:07;;;;;;;1.83;1.45;;;15.90;74.70;;;;;;5035855;28;20083;-77
2023/10/22 05:37:33;;;;;;;1.85;1.55;;;15.90;74.70;;;;;;5018287;28;20040;-77
2023/10/22 05:39:59;;;;;;;1.90;1.45;;;15.90;74.80;;;;;;5044657;28;20087;-77
2023/10/22 05:42:25;;;;;;;1.90;1.45;;;15.90;74.80;;;;;;5041446;28;20404;-77
2023/10/22 05:44:51;;;;;;;1.60;1.50;;;15.90;74.80;;;;;;5013675;28;20041;-78
2023/10/22 05:47:17;;;;;;;2.45;1.65;;;15.90;74.80;;;;;;5035001;28;20159;-77
2023/10/22 05:49:44;;;;;;;1.80;1.65;;;15.90;74.80;;;;;;5034388;28;20037;-78
2023/10/22 05:52:09;;;;;;;1.75;1.60;;;15.90;74.80;;;;;;5000985;28;20532;-78
2023/10/22 05:54:36;;;;;;;1.50;1.40;;;15.90;74.80;;;;;;5022911;28;20112;-77
2023/10/22 05:57:02;;;;;;;1.75;1.50;;;15.90;74.80;;;;;;5035473;28;20021;-79
2023/10/22 05:59:27;;;;;;;3.05;1.75;;;15.90;74.90;;;;;;5005381;28;20432;-78
2023/10/22 06:01:53;;;;;;;2.10;1.75;;;15.90;74.90;;;;;;5021388;28;20036;-78
2023/10/22 06:04:19;;;;;;;2.40;1.75;;;15.90;74.90;;;;;;5033175;28;20037;-78
2023/10/22 06:06:44;;;;;;;2.00;1.58;;;15.80;74.80;;;;;;5028018;28;20037;-78
2023/10/22 06:09:12;;;;;;;1.65;1.50;;;15.80;74.80;;;;;;5033936;28;20177;-78
2023/10/22 06:11:40;;;;;;;2.00;1.60;;;15.80;74.80;;;;;;5041237;28;20049;-79
2023/10/22 06:14:06;;;;;;;2.17;1.80;;;15.80;74.90;;;;;;5027688;28;20033;-79
2023/10/22 06:16:32;;;;;;;3.30;1.98;;;15.80;74.90;;;;;;5035166;28;20057;-78
2023/10/22 06:18:58;;;;;;;1.95;1.73;;;15.80;74.90;;;;;;5041249;28;20065;-78
2023/10/22 06:21:24;;;;;;;2.70;2.10;;;15.80;74.90;;;;;;5035193;28;20494;-78
2023/10/22 06:23:50;;;;;;;2.00;1.80;;;15.80;74.90;;;;;;5037851;28;20044;-78
2023/10/22 06:26:16;;;;;;;2.80;2.13;;;15.80;75.00;;;;;;5032593;28;20039;-78
2023/10/22 06:28:42;;;;;;;3.15;2.13;;;15.70;74.90;;;;;;5038569;28;21701;-78
2023/10/22 06:31:10;;;;;;;2.13;1.80;;;15.80;75.00;;;;;;5024409;28;20111;-78
2023/10/22 06:33:37;;;;;;;3.17;1.92;;;15.80;75.10;;;;;;5030279;28;20477;-78
2023/10/22 06:36:21;;;;;;;1.77;1.65;;;15.70;75.00;;;;;;5034349;28;20088;-79
2023/10/22 06:38:48;;;;;;;2.80;1.90;;;15.70;75.00;;;;;;5034076;28;20036;-78
2023/10/22 06:41:17;;;;;;;2.63;1.88;;;15.70;75.00;;;;;;5039819;28;20148;-78
2023/10/22 06:43:44;;;;;;;2.72;1.95;;;15.70;75.00;;;;;;5027337;28;20053;-78
2023/10/22 06:46:11;;;;;;;2.95;2.03;;;15.70;75.10;;;;;;5033320;28;20478;-78
2023/10/22 06:48:37;;;;;;;2.25;1.92;;;15.70;75.00;;;;;;5039055;28;20116;-78
2023/10/22 06:51:07;;;;;;;4.05;2.00;;;15.70;75.10;;;;;;5033110;28;20546;-78
2023/10/22 06:53:32;;;;;;;2.17;1.92;;;15.70;75.10;;;;;;5035758;28;20042;-78
2023/10/22 06:55:58;;;;;;;2.40;1.98;;;15.70;75.10;;;;;;5041372;28;20048;-79
2023/10/22 06:58:24;;;;;;;2.70;2.13;;;15.70;75.10;;;;;;5019890;28;20410;-77
2023/10/22 07:00:51;;;;;;;2.28;1.92;;;15.70;75.10;;;;;;5036307;28;20021;-77
2023/10/22 07:03:17;;;;;;;2.63;2.08;;;15.70;75.20;;;;;;5022957;28;20072;-77
2023/10/22 07:05:43;;;;;;;2.03;1.80;;;15.70;75.10;;;;;;5019883;28;20121;-77
2023/10/22 07:08:09;;;;;;;3.00;2.17;;;15.60;75.10;;;;;;5034312;28;20117;-77
2023/10/22 07:10:34;;;;;;;2.92;2.08;;;15.60;75.10;;;;;;5032270;28;20042;-77
2023/10/22 07:13:01;;;;;;;2.67;2.08;;;15.60;75.10;;;;;;4999186;28;20041;-76
2023/10/22 07:15:26;;;;;;;3.33;2.05;;;15.70;75.20;;;;;;5027855;28;20060;-76
2023/10/22 07:17:52;;;;;;;2.55;1.80;;;15.60;75.10;;;;;;5017053;28;20076;-76
2023/10/22 07:20:18;;;;;;;2.38;2.03;;;15.60;75.10;;;;;;5031372;28;20033;-77
2023/10/22 07:22:44;;;;;;;3.25;2.38;;;15.60;75.10;;;;;;5026469;28;20029;-78
2023/10/22 07:25:09;;;;;;;2.80;1.90;;;15.60;75.10;;;;;;5038506;28;20363;-77
2023/10/22 07:27:35;;;;;;;2.25;1.85;;;15.60;75.10;;;;;;4991565;28;20490;-76
2023/10/22 07:30:01;;;;;;;3.35;2.10;;;15.60;75.10;;;;;;5041843;28;20112;-81
2023/10/22 07:32:26;;;;;;;2.30;1.85;;;15.60;75.20;;;;;;5018654;28;20029;-76
2023/10/22 07:34:52;;;;;;;2.83;2.10;;;15.60;75.20;;;;;;5021841;28;20541;-77
2023/10/22 07:37:18;;;;;;;3.00;1.80;;;15.60;75.20;;;;;;5018166;28;20029;-76
2023/10/22 07:39:43;;;;;;;2.70;1.83;;;15.60;75.20;;;;;;5045138;28;20385;-77
2023/10/22 07:42:09;;;;;;;1.90;1.70;;;15.50;75.20;;;;;;5034299;28;20034;-77
2023/10/22 07:44:35;;;;;;;2.40;1.83;;;15.50;75.20;;;;;;5038523;28;20064;-77
2023/10/22 07:47:01;;;;;;;2.30;2.00;;;15.50;75.20;;;;;;4991211;28;20029;-77
2023/10/22 07:49:26;;;;;;;2.72;1.90;;;15.50;75.20;;;;;;5018813;28;20491;-77
2023/10/22 07:51:52;;;;;;;1.98;1.67;;;15.50;75.20;;;;;;5009412;28;20061;-77
2023/10/22 07:54:19;;;;;;;2.25;1.63;;;15.50;75.30;;;;;;5019667;28;20037;-76
2023/10/22 07:56:45;;;;;;;2.10;1.80;;;15.50;75.30;;;;;;5018806;28;20029;-78
2023/10/22 07:59:10;;;;;;;2.08;1.60;;;15.50;75.30;;;;;;5024364;28;20052;-80
2023/10/22 08:01:36;;;;;;;1.95;1.63;;;15.50;75.30;;;;;;5034003;28;20470;-76
2023/10/22 08:04:02;;;;;;;2.67;1.73;;;15.50;75.30;;;;;;5023229;28;20478;-76
2023/10/22 08:06:28;;;;;;;2.72;1.88;;;15.50;75.30;;;;;;5035141;28;20048;-76
2023/10/22 08:08:54;;;;;;;1.60;1.50;;;15.50;75.30;;;;;;5035082;28;20135;-77
2023/10/22 08:11:21;;;;;;;2.80;1.58;;;15.50;75.30;;;;;;5041264;28;20053;-76
2023/10/22 08:13:47;;;;;;;3.38;1.65;;;15.50;75.30;;;;;;5020646;28;20041;-76
2023/10/22 08:16:13;;;;;;;1.73;1.52;;;15.40;75.30;;;;;;5022838;28;20067;-77
2023/10/22 08:18:39;;;;;;;2.30;1.80;;;15.50;75.30;;;;;;5046099;28;20041;-76
2023/10/22 08:21:06;;;;;;;2.15;1.50;;;15.50;75.30;;;;;;5035076;28;20037;-76
2023/10/22 08:23:32;;;;;;;1.92;1.55;;;15.50;75.30;;;;;;5044357;28;20026;-76
2023/10/22 08:25:58;;;;;;;2.03;1.70;;;15.40;75.30;;;;;;5041776;28;20236;-76
2023/10/22 08:28:24;;;;;;;2.10;1.65;;;15.50;75.30;;;;;;5032021;28;20025;-76
2023/10/22 08:30:50;;;;;;;1.70;1.55;;;15.40;75.30;;;;;;5036689;28;20394;-77
2023/10/22 08:33:16;;;;;;;1.83;1.40;;;15.40;75.30;;;;;;5015957;28;20045;-75
2023/10/22 08:35:42;;;;;;;1.70;1.48;;;15.40;75.30;;;;;;5015712;28;20107;-76
2023/10/22 08:38:08;;;;;;;1.98;1.48;;;15.40;75.30;;;;;;4998413;28;20426;-76
2023/10/22 08:40:41;;;;;;;1.50;1.40;;;15.40;75.30;;;;;;5041039;28;20109;-76
2023/10/22 08:43:15;;;;;;;2.58;1.60;;;15.40;75.40;;;;;;5013630;28;20449;-76
2023/10/22 08:45:41;;;;;;;2.03;1.48;;;15.40;75.40;;;;;;5044143;28;20565;-76
2023/10/22 08:48:08;;;;;;;2.00;1.77;;;15.40;75.40;;;;;;5016823;28;20067;-76
2023/10/22 08:50:37;;;;;;;1.67;1.30;;;15.40;75.40;;;;;;5046585;28;20061;-76
2023/10/22 08:53:02;;;;;;;2.05;1.50;;;15.40;75.40;;;;;;5032677;28;20038;-76
2023/10/22 08:55:29;;;;;;;1.50;1.40;;;15.40;75.40;;;;;;5041039;28;20040;-77
2023/10/22 08:57:56;;;;;;;1.60;1.30;;;15.40;75.50;;;;;;5049666;28;20124;-77
2023/10/22 09:00:25;;;;;;;1.80;1.40;;;15.40;75.50;;;;;;5047838;28;20036;-75
2023/10/22 09:02:51;;;;;;;1.77;1.25;;;15.50;75.60;;;;;;5001516;28;20060;-77
2023/10/22 09:05:19;;;;;;;1.73;1.35;;;15.50;75.50;;;;;;5043484;28;20030;-76
2023/10/22 09:07:53;;;;;;;1.38;1.13;;;15.50;75.50;;;;;;5016449;28;20048;-77
2023/10/22 09:10:29;;;;;;;1.67;1.35;;;15.50;75.60;;;;;;5039290;28;20052;-76
2023/10/22 09:13:10;;;;;;;1.48;1.35;;;15.50;75.60;;;;;;5031510;28;20065;-76
2023/10/22 09:15:40;;;;;;;1.67;1.25;;;15.50;75.70;;;;;;5043122;28;20108;-76
2023/10/22 09:18:06;;;;;;;1.30;1.20;;;15.50;75.60;;;;;;5038369;28;20021;-76
2023/10/22 09:20:34;;;;;;;1.60;1.20;;;15.50;75.60;;;;;;5036638;28;20458;-75
2023/10/22 09:23:21;;;;;;;2.10;1.42;;;15.50;75.60;;;;;;5033789;28;20078;-75
2023/10/22 09:25:56;;;;;;;2.55;1.20;;;15.50;75.80;;;;;;5036482;28;20025;-76
2023/10/22 09:28:27;;;;;;;1.63;1.30;;;15.50;75.70;;;;;;5010974;28;20041;-75
2023/10/22 09:31:05;;;;;;;3.70;1.60;;;15.50;75.80;;;;;;5032820;28;20691;-76
2023/10/22 09:33:39;;;;;;;1.58;1.38;;;15.50;75.80;;;;;;5040515;28;20028;-76
2023/10/22 09:36:11;;;;;;;3.00;1.17;;;15.50;75.80;;;;;;5048960;28;20398;-77
2023/10/22 09:38:50;;;;;;;3.20;1.48;;;15.50;75.80;;;;;;5027779;28;20373;-77
2023/10/22 09:41:30;;;;;;;1.92;1.30;;;15.50;75.80;;;;;;5027861;28;20054;-76
2023/10/22 09:43:58;;;;;;;2.20;1.38;;;15.50;75.70;;;;;;5037667;28;20021;-77
2023/10/22 09:46:32;;;;;;;2.97;1.58;;;15.50;75.70;;;;;;5018815;28;20429;-76
2023/10/22 09:48:59;;;;;;;1.58;1.33;;;15.60;75.80;;;;;;5025476;28;20068;-77
2023/10/22 09:51:31;;;;;;;2.80;1.40;;;15.60;75.70;;;;;;5038214;28;20030;-76
2023/10/22 09:54:01;;;;;;;2.65;1.40;;;15.60;75.80;;;;;;5021679;28;20025;-77
2023/10/22 09:56:29;;;;;;;2.28;1.48;;;15.60;75.70;;;;;;5037569;28;20405;-76
2023/10/22 09:59:07;;;;;;;1.73;1.30;;;15.60;75.70;;;;;;5039916;28;20033;-77
2023/10/22 10:01:34;;;;;;;2.65;1.38;;;15.60;75.80;;;;;;5031264;28;20029;-76
2023/10/22 10:04:03;;;;;;;2.10;1.23;;;15.70;75.80;;;;;;5042312;28;20029;-75
2023/10/22 10:06:30;;;;;;;2.78;1.63;;;15.70;75.80;;;;;;5046611;28;20037;-76
2023/10/22 10:08:58;;;;;;;3.03;1.35;;;15.70;75.70;;;;;;5037737;28;20043;-76
2023/10/22 10:11:25;;;;;;;2.55;1.60;;;15.80;75.80;;;;;;5035208;28;20077;-75
2023/10/22 10:13:50;;;;;;;2.00;1.48;;;15.80;75.70;;;;;;5044551;28;20041;-75
2023/10/22 10:16:16;;;;;;;2.15;1.30;;;15.80;75.70;;;;;;5045221;28;20128;-76
2023/10/22 10:19:06;;;;;;;2.35;1.40;;;15.80;75.60;;;;;;5037655;28;20033;-76
2023/10/22 10:21:36;;;;;;;1.92;1.30;;;15.80;75.70;;;;;;5035775;28;20032;-76
2023/10/22 10:24:22;;;;;;;2.78;1.45;;;15.90;75.60;;;;;;5043855;28;20025;-75
2023/10/22 10:26:56;;;;;;;2.40;1.50;;;15.90;75.70;;;;;;5017593;28;20080;-75
2023/10/22 10:29:23;;;;;;;1.98;1.30;;;15.90;75.60;;;;;;5012345;28;20040;-75
2023/10/22 10:31:53;;;;;;;3.15;1.30;;;15.90;75.50;;;;;;5032081;28;20525;-75
2023/10/22 10:34:27;;;;;;;3.65;1.30;;;16.00;75.60;;;;;;5052473;28;20251;-76
2023/10/22 10:36:53;;;;;;;2.42;1.40;;;16.00;75.60;;;;;;5039426;28;20043;-75
2023/10/22 10:39:46;;;;;;;1.95;1.42;;;16.00;75.50;;;;;;5043713;28;20072;-76
2023/10/22 10:42:32;;;;;;;2.22;1.25;;;16.10;75.60;;;;;;5034143;28;20091;-76
2023/10/22 10:44:58;;;;;;;2.33;1.20;;;16.10;75.40;;;;;;5038094;28;20068;-77
2023/10/22 10:47:33;;;;;;;2.63;1.40;;;16.10;75.40;;;;;;5038156;28;20418;-77
2023/10/22 10:49:59;;;;;;;1.40;1.27;;;16.10;75.40;;;;;;5039423;28;20095;-76
2023/10/22 10:52:28;;;;;;;3.00;1.50;;;16.10;75.30;;;;;;5037197;28;20025;-76
2023/10/22 10:55:15;;;;;;;2.60;1.40;;;16.20;75.40;;;;;;5040956;28;20030;-76
2023/10/22 10:57:44;;;;;;;3.17;1.40;;;16.20;75.40;;;;;;5042616;28;20494;-76
2023/10/22 11:00:21;;;;;;;2.15;1.20;;;16.20;75.20;;;;;;5039570;28;20104;-76
2023/10/22 11:02:54;;;;;;;2.95;1.15;;;16.20;75.20;;;;;;5040450;28;20497;-76
2023/10/22 11:05:40;;;;;;;2.10;1.30;;;16.30;75.30;;;;;;5036262;28;20033;-75
2023/10/22 11:08:15;;;;;;;1.92;1.20;;;16.30;75.20;;;;;;5040627;28;20041;-76
2023/10/22 11:10:41;;;;;;;2.78;1.30;;;16.30;75.20;;;;;;5039904;28;20049;-76
2023/10/22 11:13:08;;;;;;;1.95;1.23;;;16.40;75.20;;;;;;5016731;28;20032;-76
2023/10/22 11:15:35;;;;;;;2.10;1.10;;;16.40;75.10;;;;;;5020608;28;20025;-77
2023/10/22 11:18:02;;;;;;;1.20;1.10;;;16.40;75.10;;;;;;5038432;28;20087;-78
2023/10/22 11:20:28;;;;;;;3.10;1.52;;;16.40;75.00;;;;;;5039517;28;20083;-75
2023/10/22 11:22:54;;;;;;;1.52;0.93;;;16.50;74.90;;;;;;5035473;28;20091;-76
2023/10/22 11:25:20;;;;;;;2.40;1.23;;;16.50;74.90;;;;;;5035327;28;20041;-76
2023/10/22 11:27:46;;;;;;;2.58;1.80;;;16.50;74.90;;;;;;5042234;28;22129;-75
2023/10/22 11:30:31;;;;;;;3.85;1.20;;;16.60;74.80;;;;;;5025501;28;20026;-76
2023/10/22 11:32:57;;;;;;;1.52;1.30;;;16.60;74.80;;;;;;5045073;28;20037;-75
2023/10/22 11:35:30;;;;;;;2.33;1.05;;;16.70;74.70;;;;;;5036757;28;20091;-77
2023/10/22 11:37:57;;;;;;;1.85;1.20;;;16.70;74.70;;;;;;5036173;28;20111;-76
2023/10/22 11:40:28;;;;;;;1.35;1.00;;;16.70;74.60;;;;;;5054821;28;20033;-76
2023/10/22 11:43:00;;;;;;;2.45;1.38;;;16.80;74.60;;;;;;5038741;28;20525;-76
2023/10/22 11:45:31;;;;;;;2.47;1.35;;;16.70;74.50;;;;;;5041317;28;20087;-75
2023/10/22 11:48:18;;;;;;;2.22;1.00;;;16.80;74.50;;;;;;5044787;28;20478;-75
2023/10/22 11:50:48;;;;;;;4.03;1.10;;;16.80;74.50;;;;;;5032120;28;20032;-76
2023/10/22 11:53:14;;;;;;;1.83;1.30;;;16.80;74.40;;;;;;5043903;28;20025;-76
2023/10/22 11:55:40;;;;;;;1.67;1.30;;;16.90;74.50;;;;;;5045650;28;20030;-75
2023/10/22 11:58:24;;;;;;;2.75;1.13;;;16.90;74.40;;;;;;5040363;28;20489;-75
2023/10/22 12:00:51;;;;;;;2.22;1.20;;;16.90;74.40;;;;;;5040897;28;20037;-75
2023/10/22 12:03:18;;;;;;;2.13;1.30;;;16.90;74.30;;;;;;5035139;28;20033;-75
2023/10/22 12:05:45;;;;;;;2.08;1.30;;;17.00;74.30;;;;;;5041257;28;20079;-75
2023/10/22 12:08:11;;;;;;;2.05;1.15;;;17.00;74.30;;;;;;5036641;28;20463;-75
2023/10/22 12:10:37;;;;;;;2.95;1.35;;;17.00;74.30;;;;;;5024064;28;20054;-75
2023/10/22 12:13:05;;;;;;;2.55;1.38;;;17.00;74.20;;;;;;5041309;28;20034;-75
2023/10/22 12:15:31;;;;;;;1.63;1.30;;;17.10;74.20;;;;;;5038962;28;20040;-75
2023/10/22 12:17:57;;;;;;;1.42;1.17;;;17.10;74.10;;;;;;5036099;28;20142;-75
2023/10/22 12:20:23;;;;;;;3.03;1.40;;;17.10;74.00;;;;;;5045142;28;20527;-75
2023/10/22 12:22:49;;;;;;;1.33;1.10;;;17.20;74.00;;;;;;5032264;28;20043;-76
2023/10/22 12:25:15;;;;;;;2.83;1.27;;;17.20;73.90;;;;;;5031411;28;20120;-75
2023/10/22 12:27:41;;;;;;;2.72;1.45;;;17.20;74.50;;;;;;5040051;28;20061;-76
2023/10/22 12:30:07;;;;;;;2.08;1.40;;;17.20;73.90;;;;;;5042036;28;20371;-76
2023/10/22 12:32:33;;;;;;;1.52;1.20;;;17.30;73.80;;;;;;5032134;28;20052;-78
2023/10/22 12:34:59;;;;;;;2.13;1.52;;;17.30;73.80;;;;;;5000376;28;20478;-78
2023/10/22 12:37:26;;;;;;;3.75;1.40;;;17.30;73.70;;;;;;5003094;28;20467;-78
2023/10/22 12:39:52;;;;;;;2.20;1.25;;;17.30;73.70;;;;;;5038318;28;20086;-78
2023/10/22 12:42:17;;;;;;;1.90;1.33;;;17.40;73.70;;;;;;5024406;28;20033;-77
2023/10/22 12:44:44;;;;;;;2.22;1.45;;;17.40;73.70;;;;;;5041337;28;20393;-77
2023/10/22 12:47:12;;;;;;;2.28;1.40;;;17.40;73.60;;;;;;5017379;28;20395;-78
2023/10/22 12:49:42;;;;;;;2.53;1.48;;;17.40;73.60;;;;;;5014810;28;20037;-77